GUCY/CKY METAR and TAF weather

Enter ICAO airport designator
Station Type Date Time Source
GUCY METAR 2019/06/18 12:00 UTC NOAA

GUCY 181200Z 20004KT 9999 FEW015 BKN110 29/26 Q1015 NOSIG


Station Type Date Time Source
GUCY Decoded METAR 2019/06/18 12:00 UTC NOAA

Conakry / Gbessia, Guinea (GUCY) 09-34N 013-37W 26M
Jun 18, 2019 - 08:00 AM EDT / 2019.06.18 1200 UTC
Wind: from the SSW (200 degrees) at 5 MPH (4 KT):0
Visibility: greater than 7 mile(s):0
Sky conditions: mostly cloudy
Temperature: 84 F (29 C)
Dew Point: 78 F (26 C)
Relative Humidity: 83%
Pressure (altimeter): 29.97 in. Hg (1015 hPa)
ob: GUCY 181200Z 20004KT 9999 FEW015 BKN110 29/26 Q1015 NOSIG
cycle: 12

Station Type Date Time Source
GUCY TAF 2019/06/18 12:56 UTC NOAA

TAF GUCY 181100Z 1812/1918 28008KT 9999 SCT015 SCT110 PROB30
TEMPO 1822/1903 16012KT 5000 BKN013 FEW023CB OVC100

Example: see airport list